createdAt,value
2019-04-28T00:00:33.176Z,0.00
2019-04-28T00:01:33.305Z,0.00
2019-04-28T00:02:33.309Z,0.00
2019-04-28T00:03:32.599Z,0.00
2019-04-28T00:04:33.312Z,0.00
2019-04-28T00:05:33.823Z,0.00
2019-04-28T00:06:33.215Z,0.00
2019-04-28T00:07:34.329Z,0.00
2019-04-28T00:08:33.842Z,0.00
2019-04-28T00:09:33.844Z,0.00
2019-04-28T00:10:34.799Z,0.00
2019-04-28T00:11:34.075Z,0.00
2019-04-28T00:12:34.262Z,0.00
2019-04-28T00:13:35.304Z,0.00
2019-04-28T00:14:34.581Z,0.00
2019-04-28T00:15:35.335Z,0.00
2019-04-28T00:16:34.858Z,0.00
2019-04-28T00:17:35.016Z,0.00
2019-04-28T00:18:35.324Z,0.00
2019-04-28T00:19:35.361Z,0.00
2019-04-28T00:20:35.524Z,0.00
2019-04-28T00:21:35.672Z,0.00
2019-04-28T00:22:35.876Z,0.00
2019-04-28T00:23:36.028Z,0.00
2019-04-28T00:24:36.232Z,0.00
2019-04-28T00:25:36.422Z,0.00
2019-04-28T00:26:37.304Z,0.00
2019-04-28T00:27:36.838Z,0.00
2019-04-28T00:28:36.980Z,0.00
2019-04-28T00:29:41.057Z,0.00
2019-04-28T00:30:39.308Z,0.00
2019-04-28T00:31:37.429Z,0.00
2019-04-28T00:32:37.594Z,0.00
2019-04-28T00:33:38.313Z,0.00
2019-04-28T00:34:38.326Z,0.00
2019-04-28T00:35:38.106Z,0.00
2019-04-28T00:36:38.262Z,0.00
2019-04-28T00:37:39.329Z,0.00
2019-04-28T00:38:39.308Z,0.00
2019-04-28T00:39:38.787Z,0.00
2019-04-28T00:40:38.924Z,0.00
2019-04-28T00:41:39.064Z,0.00
2019-04-28T00:42:41.402Z,0.00
2019-04-28T00:43:39.379Z,0.00
2019-04-28T00:44:43.045Z,0.00
2019-04-28T00:45:41.319Z,0.00
2019-04-28T00:46:41.078Z,0.00
2019-04-28T00:47:42.618Z,0.00
2019-04-28T00:48:41.822Z,0.00
2019-04-28T00:49:41.987Z,0.00
2019-04-28T00:50:43.768Z,0.00
2019-04-28T00:51:41.540Z,0.00
2019-04-28T00:52:41.968Z,0.00
2019-04-28T00:53:42.020Z,0.00
2019-04-28T00:54:42.056Z,0.00
2019-04-28T00:55:42.374Z,0.00
2019-04-28T00:56:42.102Z,0.00
2019-04-28T00:57:42.321Z,0.00
2019-04-28T00:58:43.079Z,0.00
2019-04-28T00:59:54.103Z,0.00
2019-04-28T01:00:44.106Z,0.00
2019-04-28T01:01:42.824Z,0.00
2019-04-28T01:02:42.487Z,0.00
2019-04-28T01:03:42.661Z,0.00
2019-04-28T01:04:42.843Z,0.00
2019-04-28T01:05:43.333Z,0.00
2019-04-28T01:06:43.327Z,0.00
2019-04-28T01:07:43.387Z,0.00
2019-04-28T01:08:43.551Z,0.00
2019-04-28T01:09:44.401Z,0.00
2019-04-28T01:10:43.979Z,0.00
2019-04-28T01:11:44.805Z,0.00
2019-04-28T01:12:46.788Z,0.00
2019-04-28T01:13:45.494Z,0.00
2019-04-28T01:14:45.328Z,0.00
2019-04-28T01:15:45.362Z,0.00
2019-04-28T01:16:45.023Z,0.00
2019-04-28T01:17:45.174Z,0.00
2019-04-28T01:18:45.337Z,0.00
2019-04-28T01:19:45.527Z,0.00
2019-04-28T01:20:45.729Z,0.00
2019-04-28T01:21:45.928Z,0.00
2019-04-28T01:22:46.080Z,0.00
2019-04-28T01:23:46.264Z,0.00
2019-04-28T01:24:46.466Z,0.00
2019-04-28T01:25:46.629Z,0.00
2019-04-28T01:26:46.798Z,0.00
2019-04-28T01:27:46.954Z,0.00
2019-04-28T01:28:47.158Z,0.00
2019-04-28T01:29:47.320Z,0.00
2019-04-28T01:30:49.921Z,0.00
2019-04-28T01:31:49.373Z,0.00
2019-04-28T01:32:49.767Z,0.00
2019-04-28T01:33:48.021Z,0.00
2019-04-28T01:34:49.854Z,0.00
2019-04-28T01:35:49.397Z,0.00
2019-04-28T01:36:49.542Z,0.00
2019-04-28T01:37:50.500Z,0.00
2019-04-28T01:38:50.076Z,0.00
2019-04-28T01:39:49.820Z,0.00
2019-04-28T01:40:50.026Z,0.00
2019-04-28T01:41:51.317Z,0.00
2019-04-28T01:42:50.331Z,0.00
2019-04-28T01:43:49.841Z,0.00
2019-04-28T01:44:50.015Z,0.00
2019-04-28T01:45:50.831Z,0.00
2019-04-28T01:46:50.367Z,0.00
2019-04-28T01:47:51.320Z,0.00
2019-04-28T01:48:50.762Z,0.00
2019-04-28T01:49:50.987Z,0.00
2019-04-28T01:50:51.816Z,0.00
2019-04-28T01:51:52.316Z,0.00
2019-04-28T01:52:52.326Z,0.00
2019-04-28T01:53:51.620Z,0.00
2019-04-28T01:54:51.842Z,0.00
2019-04-28T01:55:52.035Z,0.00
2019-04-28T01:56:52.189Z,0.00
2019-04-28T01:57:52.362Z,0.00
2019-04-28T01:58:52.572Z,0.00
2019-04-28T01:59:52.739Z,0.00
2019-04-28T02:00:52.894Z,0.00
2019-04-28T02:01:53.031Z,0.00
2019-04-28T02:02:53.822Z,0.00
2019-04-28T02:03:53.834Z,0.00
2019-04-28T02:04:53.486Z,0.00
2019-04-28T02:05:53.664Z,0.00
2019-04-28T02:06:53.846Z,0.00
2019-04-28T02:07:54.013Z,0.00
2019-04-28T02:08:54.858Z,0.00
2019-04-28T02:09:55.323Z,0.00
2019-04-28T02:10:54.569Z,0.00
2019-04-28T02:11:54.730Z,0.00
2019-04-28T02:12:54.862Z,0.00
2019-04-28T02:13:55.017Z,0.00
2019-04-28T02:14:55.875Z,0.00
2019-04-28T02:15:55.371Z,0.00
2019-04-28T02:16:55.537Z,0.00
2019-04-28T02:17:55.647Z,0.00
2019-04-28T02:18:55.769Z,0.00
2019-04-28T02:19:56.814Z,0.00
2019-04-28T02:20:56.088Z,0.00
2019-04-28T02:21:56.370Z,0.00
2019-04-28T02:22:56.443Z,0.00
2019-04-28T02:23:56.656Z,0.00
2019-04-28T02:24:56.839Z,0.00
2019-04-28T02:25:56.985Z,0.00
2019-04-28T02:26:57.162Z,0.00
2019-04-28T02:27:57.326Z,0.00
2019-04-28T02:28:57.505Z,0.00
2019-04-28T02:29:59.904Z,0.00
2019-04-28T02:30:57.799Z,0.00
2019-04-28T02:32:01.924Z,0.00
2019-04-28T02:32:58.067Z,0.00
2019-04-28T02:34:00.789Z,0.00
2019-04-28T02:35:01.472Z,0.00
2019-04-28T02:36:01.401Z,0.00
2019-04-28T02:37:01.535Z,0.00
2019-04-28T02:38:00.203Z,0.00
2019-04-28T02:39:00.827Z,0.00
2019-04-28T02:40:03.315Z,0.00
2019-04-28T02:41:00.148Z,0.00
2019-04-28T02:42:01.890Z,0.00
2019-04-28T02:43:01.832Z,0.00
2019-04-28T02:44:01.096Z,0.00
2019-04-28T02:45:01.340Z,0.00
2019-04-28T02:46:00.880Z,0.00
2019-04-28T02:47:01.394Z,0.00
2019-04-28T02:48:02.015Z,0.00
2019-04-28T02:49:22.025Z,0.00
2019-04-28T02:50:01.880Z,0.00
2019-04-28T02:51:01.430Z,0.00
2019-04-28T02:52:03.050Z,0.00
2019-04-28T02:53:03.331Z,0.00
2019-04-28T02:54:01.989Z,0.00
2019-04-28T02:55:03.640Z,0.00
2019-04-28T02:56:03.265Z,0.00
2019-04-28T02:57:35.918Z,0.00
2019-04-28T02:58:02.637Z,0.00
2019-04-28T02:59:02.774Z,0.00
2019-04-28T03:00:02.910Z,0.00
2019-04-28T03:01:12.803Z,0.00
2019-04-28T03:02:04.298Z,0.00
2019-04-28T03:03:04.364Z,0.00
2019-04-28T03:04:03.628Z,0.00
2019-04-28T03:05:03.885Z,0.00
2019-04-28T03:06:03.940Z,0.00
2019-04-28T03:07:04.077Z,0.00
2019-04-28T03:08:04.248Z,0.00
2019-04-28T03:09:05.376Z,0.00
2019-04-28T03:10:04.620Z,0.00
2019-04-28T03:11:04.792Z,0.00
2019-04-28T03:12:04.942Z,0.00
2019-04-28T03:13:06.859Z,0.00
2019-04-28T03:14:05.231Z,0.00
2019-04-28T03:15:05.391Z,0.00
2019-04-28T03:16:06.584Z,0.00
2019-04-28T03:17:05.699Z,0.00
2019-04-28T03:18:06.369Z,0.00
2019-04-28T03:19:06.007Z,0.00
2019-04-28T03:20:06.158Z,0.00
2019-04-28T03:21:06.320Z,0.00
2019-04-28T03:22:06.480Z,0.00
2019-04-28T03:23:09.021Z,0.00
2019-04-28T03:24:10.986Z,0.00
2019-04-28T03:25:06.978Z,0.00
2019-04-28T03:26:07.869Z,0.00
2019-04-28T03:27:07.381Z,0.00
2019-04-28T03:28:07.533Z,0.00
2019-04-28T03:29:07.678Z,0.00
2019-04-28T03:30:07.844Z,0.00
2019-04-28T03:31:36.800Z,0.00
2019-04-28T03:32:31.127Z,0.00
2019-04-28T03:33:13.086Z,0.00
2019-04-28T03:34:12.905Z,0.00
2019-04-28T03:35:13.017Z,0.00
2019-04-28T03:36:15.066Z,0.00
2019-04-28T03:37:11.315Z,0.00
2019-04-28T03:38:10.723Z,0.00
2019-04-28T03:39:11.011Z,0.00
2019-04-28T03:40:11.508Z,0.00
2019-04-28T03:41:11.281Z,0.00
2019-04-28T03:42:11.778Z,0.00
2019-04-28T03:43:14.298Z,0.00
2019-04-28T03:44:11.483Z,0.00
2019-04-28T03:45:11.407Z,0.00
2019-04-28T03:46:11.895Z,0.00
2019-04-28T03:47:10.885Z,0.00
2019-04-28T03:48:11.564Z,0.00
2019-04-28T03:49:12.124Z,0.00
2019-04-28T03:50:11.232Z,0.00
2019-04-28T03:51:13.403Z,0.00
2019-04-28T03:52:13.369Z,0.00
2019-04-28T03:53:11.746Z,0.00
2019-04-28T03:54:12.868Z,0.00
2019-04-28T03:55:12.101Z,0.00
2019-04-28T03:56:12.397Z,0.00
2019-04-28T03:57:12.474Z,0.00
2019-04-28T03:58:12.620Z,0.00
2019-04-28T03:59:13.372Z,0.00
2019-04-28T04:00:13.866Z,0.00
2019-04-28T04:01:13.305Z,0.00
2019-04-28T04:02:13.468Z,0.00
2019-04-28T04:03:13.624Z,0.00
2019-04-28T04:04:13.807Z,0.00
2019-04-28T04:05:13.971Z,0.00
2019-04-28T04:06:14.210Z,0.00
2019-04-28T04:07:14.386Z,0.00
2019-04-28T04:08:14.570Z,0.00
2019-04-28T04:09:15.369Z,0.00
2019-04-28T04:10:15.874Z,0.00
2019-04-28T04:11:15.152Z,0.00
2019-04-28T04:12:15.324Z,0.00
2019-04-28T04:13:15.529Z,0.00
2019-04-28T04:14:15.679Z,0.00
2019-04-28T04:15:15.833Z,0.00
2019-04-28T04:16:16.873Z,0.00
2019-04-28T04:17:16.157Z,0.00
2019-04-28T04:18:16.384Z,0.00
2019-04-28T04:19:17.372Z,0.00
2019-04-28T04:20:16.781Z,0.00
2019-04-28T04:21:16.950Z,0.00
2019-04-28T04:22:17.115Z,0.00
2019-04-28T04:23:17.292Z,5.62
2019-04-28T04:24:20.553Z,5.62
2019-04-28T04:25:20.348Z,5.62
2019-04-28T04:26:17.860Z,5.62
2019-04-28T04:27:20.765Z,5.62
2019-04-28T04:28:20.564Z,5.62
2019-04-28T04:29:18.405Z,5.62
2019-04-28T04:30:20.715Z,5.62
2019-04-28T04:31:20.008Z,5.62
2019-04-28T04:32:26.291Z,5.62
2019-04-28T04:33:21.129Z,5.62
2019-04-28T04:34:20.318Z,5.62
2019-04-28T04:35:21.514Z,11.25
2019-04-28T04:36:21.236Z,11.25
2019-04-28T04:37:20.860Z,11.25
2019-04-28T04:38:21.788Z,11.25
2019-04-28T04:39:21.183Z,11.25
2019-04-28T04:40:21.025Z,11.25
2019-04-28T04:41:21.546Z,11.25
2019-04-28T04:42:20.678Z,16.88
2019-04-28T04:43:23.276Z,16.88
2019-04-28T04:44:21.309Z,16.88
2019-04-28T04:45:22.218Z,16.88
2019-04-28T04:46:22.214Z,16.88
2019-04-28T04:47:23.384Z,16.88
2019-04-28T04:48:21.816Z,16.88
2019-04-28T04:49:21.991Z,16.88
2019-04-28T04:50:22.165Z,16.88
2019-04-28T04:51:22.326Z,16.88
2019-04-28T04:52:22.492Z,16.88
2019-04-28T04:53:22.883Z,16.88
2019-04-28T04:54:23.373Z,16.88
2019-04-28T04:55:23.029Z,16.88
2019-04-28T04:56:23.184Z,16.88
2019-04-28T04:57:23.867Z,16.88
2019-04-28T04:58:23.487Z,16.88
2019-04-28T04:59:23.756Z,16.88
2019-04-28T05:00:24.888Z,16.88
2019-04-28T05:01:24.874Z,16.88
2019-04-28T05:02:29.517Z,16.88
2019-04-28T05:03:27.378Z,16.88
2019-04-28T05:04:24.593Z,22.50
2019-04-28T05:05:24.765Z,22.50
2019-04-28T05:06:24.917Z,22.50
2019-04-28T05:07:25.869Z,22.50
2019-04-28T05:08:26.878Z,22.50
2019-04-28T05:09:26.498Z,28.12
2019-04-28T05:10:25.622Z,28.12
2019-04-28T05:11:26.382Z,28.12
2019-04-28T05:12:26.875Z,28.12
2019-04-28T05:13:26.223Z,28.12
2019-04-28T05:14:26.388Z,28.12
2019-04-28T05:15:26.517Z,28.12
2019-04-28T05:16:26.665Z,28.12
2019-04-28T05:17:26.815Z,33.75
2019-04-28T05:18:26.931Z,33.75
2019-04-28T05:19:27.074Z,33.75
2019-04-28T05:20:27.388Z,33.75
2019-04-28T05:21:32.859Z,33.75
2019-04-28T05:22:29.996Z,39.38
2019-04-28T05:23:29.714Z,39.38
2019-04-28T05:24:27.893Z,39.38
2019-04-28T05:25:30.849Z,39.38
2019-04-28T05:26:30.069Z,39.38
2019-04-28T05:27:30.036Z,45.00
2019-04-28T05:28:32.314Z,45.00
2019-04-28T05:29:30.734Z,45.00
2019-04-28T05:30:30.027Z,50.62
2019-04-28T05:31:29.736Z,50.62
2019-04-28T05:32:42.089Z,50.62
2019-04-28T05:33:33.942Z,50.62
2019-04-28T05:34:30.757Z,50.62
2019-04-28T05:35:30.006Z,56.25
2019-04-28T05:36:35.095Z,56.25
2019-04-28T05:37:31.321Z,61.88
2019-04-28T05:38:30.477Z,61.88
2019-04-28T05:39:32.386Z,61.88
2019-04-28T05:40:31.391Z,67.50
2019-04-28T05:41:31.061Z,67.50
2019-04-28T05:42:31.885Z,73.12
2019-04-28T05:43:31.432Z,73.12
2019-04-28T05:44:32.029Z,78.75
2019-04-28T05:45:32.795Z,78.75
2019-04-28T05:46:32.885Z,78.75
2019-04-28T05:47:32.174Z,78.75
2019-04-28T05:48:32.331Z,78.75
2019-04-28T05:49:32.499Z,84.38
2019-04-28T05:50:32.680Z,84.38
2019-04-28T05:51:33.050Z,84.38
2019-04-28T05:52:33.097Z,84.38
2019-04-28T05:53:33.325Z,90.00
2019-04-28T05:54:33.382Z,95.62
2019-04-28T05:55:33.536Z,95.62
2019-04-28T05:56:33.715Z,95.62
2019-04-28T05:57:33.888Z,95.62
2019-04-28T05:58:34.039Z,95.62
2019-04-28T05:59:34.192Z,95.62
2019-04-28T06:00:34.345Z,95.62
2019-04-28T06:01:34.532Z,95.62
2019-04-28T06:02:34.704Z,95.62
2019-04-28T06:03:34.884Z,101.25
2019-04-28T06:04:35.088Z,106.88
2019-04-28T06:05:35.249Z,112.50
2019-04-28T06:06:36.897Z,118.12
2019-04-28T06:07:36.387Z,118.12
2019-04-28T06:08:36.381Z,123.75
2019-04-28T06:09:35.932Z,129.38
2019-04-28T06:10:36.134Z,135.00
2019-04-28T06:11:37.315Z,135.00
2019-04-28T06:12:36.445Z,135.00
2019-04-28T06:13:36.587Z,135.00
2019-04-28T06:14:36.763Z,140.62
2019-04-28T06:15:36.944Z,151.88
2019-04-28T06:16:37.885Z,157.50
2019-04-28T06:17:37.397Z,157.50
2019-04-28T06:18:37.434Z,157.50
2019-04-28T06:19:37.591Z,157.50
2019-04-28T06:20:37.725Z,146.25
2019-04-28T06:21:38.394Z,140.62
2019-04-28T06:22:38.035Z,140.62
2019-04-28T06:23:38.185Z,140.62
2019-04-28T06:24:38.347Z,135.00
2019-04-28T06:25:38.465Z,140.62
2019-04-28T06:26:38.582Z,146.25
2019-04-28T06:27:38.774Z,157.50
2019-04-28T06:28:39.398Z,163.12
2019-04-28T06:29:39.392Z,163.12
2019-04-28T06:30:39.163Z,157.50
2019-04-28T06:31:39.285Z,157.50
2019-04-28T06:32:39.396Z,151.88
2019-04-28T06:33:39.544Z,157.50
2019-04-28T06:34:39.734Z,157.50
2019-04-28T06:35:39.878Z,157.50
2019-04-28T06:36:40.078Z,157.50
2019-04-28T06:37:40.237Z,163.12
2019-04-28T06:38:40.404Z,174.38
2019-04-28T06:39:40.598Z,180.00
2019-04-28T06:40:40.793Z,180.00
2019-04-28T06:41:40.980Z,174.38
2019-04-28T06:42:41.898Z,163.12
2019-04-28T06:43:41.308Z,157.50
2019-04-28T06:44:41.461Z,151.88
2019-04-28T06:45:41.627Z,140.62
2019-04-28T06:46:41.775Z,135.00
2019-04-28T06:47:42.902Z,129.38
2019-04-28T06:48:42.185Z,129.38
2019-04-28T06:49:42.346Z,135.00
2019-04-28T06:50:42.978Z,140.62
2019-04-28T06:51:43.419Z,146.25
2019-04-28T06:52:42.800Z,146.25
2019-04-28T06:53:42.939Z,140.62
2019-04-28T06:54:43.076Z,135.00
2019-04-28T06:55:43.232Z,129.38
2019-04-28T06:56:43.347Z,118.12
2019-04-28T06:57:43.485Z,112.50
2019-04-28T06:58:44.392Z,118.12
2019-04-28T06:59:43.795Z,118.12
2019-04-28T07:00:44.894Z,123.75
2019-04-28T07:01:44.170Z,135.00
2019-04-28T07:02:44.314Z,135.00
2019-04-28T07:03:44.465Z,140.62
2019-04-28T07:04:44.637Z,151.88
2019-04-28T07:05:44.770Z,163.12
2019-04-28T07:06:44.889Z,168.75
2019-04-28T07:07:45.034Z,180.00
2019-04-28T07:08:45.279Z,191.25
2019-04-28T07:09:45.435Z,196.88
2019-04-28T07:10:45.570Z,202.50
2019-04-28T07:11:45.736Z,208.12
2019-04-28T07:12:45.879Z,208.12
2019-04-28T07:13:46.040Z,219.38
2019-04-28T07:14:46.227Z,225.00
2019-04-28T07:15:46.380Z,219.38
2019-04-28T07:16:46.537Z,219.38
2019-04-28T07:17:46.710Z,219.38
2019-04-28T07:18:46.852Z,213.75
2019-04-28T07:19:47.896Z,219.38
2019-04-28T07:20:47.408Z,225.00
2019-04-28T07:21:47.313Z,230.62
2019-04-28T07:22:47.462Z,236.25
2019-04-28T07:23:48.395Z,225.00
2019-04-28T07:24:47.768Z,219.38
2019-04-28T07:25:47.959Z,225.00
2019-04-28T07:26:48.135Z,225.00
2019-04-28T07:27:48.906Z,236.25
2019-04-28T07:28:48.439Z,236.25
2019-04-28T07:29:48.625Z,236.25
2019-04-28T07:30:48.855Z,230.62
2019-04-28T07:31:49.042Z,230.62
2019-04-28T07:32:49.275Z,236.25
2019-04-28T07:33:49.390Z,230.62
2019-04-28T07:34:49.564Z,230.62
2019-04-28T07:35:49.738Z,236.25
2019-04-28T07:36:49.905Z,236.25
2019-04-28T07:37:50.094Z,241.88
2019-04-28T07:38:50.262Z,247.50
2019-04-28T07:39:51.398Z,253.12
2019-04-28T07:40:50.667Z,258.75
2019-04-28T07:41:50.849Z,258.75
2019-04-28T07:42:51.408Z,270.00
2019-04-28T07:43:51.257Z,275.62
2019-04-28T07:44:52.394Z,281.25
2019-04-28T07:45:51.637Z,286.88
2019-04-28T07:46:51.783Z,292.50
2019-04-28T07:47:52.423Z,298.12
2019-04-28T07:48:52.584Z,303.75
2019-04-28T07:49:53.381Z,309.38
2019-04-28T07:50:53.404Z,315.00
2019-04-28T07:51:52.624Z,315.00
2019-04-28T07:52:52.803Z,315.00
2019-04-28T07:53:53.003Z,315.00
2019-04-28T07:54:53.201Z,315.00
2019-04-28T07:55:53.388Z,315.00
2019-04-28T07:56:53.498Z,315.00
2019-04-28T07:57:53.661Z,309.38
2019-04-28T07:58:53.840Z,303.75
2019-04-28T07:59:53.985Z,303.75
2019-04-28T08:00:54.141Z,298.12
2019-04-28T08:01:54.317Z,298.12
2019-04-28T08:02:54.915Z,292.50
2019-04-28T08:03:57.521Z,292.50
2019-04-28T08:04:54.883Z,292.50
2019-04-28T08:05:55.421Z,286.88
2019-04-28T08:06:55.227Z,286.88
2019-04-28T08:07:55.896Z,286.88
2019-04-28T08:08:55.539Z,292.50
2019-04-28T08:09:56.407Z,292.50
2019-04-28T08:10:56.416Z,298.12
2019-04-28T08:11:56.164Z,303.75
2019-04-28T08:12:56.322Z,303.75
2019-04-28T08:13:56.494Z,303.75
2019-04-28T08:14:56.607Z,309.38
2019-04-28T08:15:56.886Z,309.38
2019-04-28T08:16:57.011Z,315.00
2019-04-28T08:17:57.133Z,320.62
2019-04-28T08:18:57.303Z,326.25
2019-04-28T08:19:57.428Z,331.88
2019-04-28T08:20:58.415Z,337.50
2019-04-28T08:21:57.827Z,337.50
2019-04-28T08:22:57.974Z,343.12
2019-04-28T08:23:58.080Z,354.38
2019-04-28T08:24:58.296Z,360.00
2019-04-28T08:25:58.930Z,365.62
2019-04-28T08:26:59.412Z,371.25
2019-04-28T08:27:58.777Z,376.88
2019-04-28T08:28:59.413Z,382.50
2019-04-28T08:29:59.898Z,388.12
2019-04-28T08:30:59.369Z,388.12
2019-04-28T08:31:59.536Z,393.75
2019-04-28T08:32:59.695Z,393.75
2019-04-28T08:34:02.553Z,393.75
2019-04-28T08:35:01.113Z,393.75
2019-04-28T08:36:00.221Z,393.75
2019-04-28T08:37:00.928Z,393.75
2019-04-28T08:38:00.547Z,399.38
2019-04-28T08:39:00.679Z,405.00
2019-04-28T08:40:00.840Z,405.00
2019-04-28T08:41:00.982Z,410.62
2019-04-28T08:42:01.919Z,410.62
2019-04-28T08:43:01.901Z,399.38
2019-04-28T08:44:01.512Z,399.38
2019-04-28T08:45:01.698Z,399.38
2019-04-28T08:46:01.857Z,410.62
2019-04-28T08:47:01.984Z,421.88
2019-04-28T08:48:03.226Z,427.50
2019-04-28T08:49:02.437Z,433.12
2019-04-28T08:50:02.600Z,444.38
2019-04-28T08:51:02.784Z,450.00
2019-04-28T08:52:03.917Z,461.25
2019-04-28T08:53:03.145Z,478.12
2019-04-28T08:54:03.305Z,483.75
2019-04-28T08:55:03.472Z,483.75
2019-04-28T08:56:03.666Z,478.12
2019-04-28T08:57:03.810Z,455.62
2019-04-28T08:58:03.974Z,450.00
2019-04-28T08:59:05.068Z,438.75
2019-04-28T09:00:05.288Z,421.88
2019-04-28T09:01:04.437Z,405.00
2019-04-28T09:02:04.575Z,388.12
2019-04-28T09:03:05.717Z,376.88
2019-04-28T09:04:14.817Z,365.62
2019-04-28T09:05:07.916Z,360.00
2019-04-28T09:06:05.368Z,354.38
2019-04-28T09:07:05.523Z,365.62
2019-04-28T09:08:05.695Z,376.88
2019-04-28T09:09:05.926Z,393.75
2019-04-28T09:10:06.063Z,416.25
2019-04-28T09:11:06.208Z,433.12
2019-04-28T09:12:06.344Z,438.75
2019-04-28T09:13:06.551Z,433.12
2019-04-28T09:14:06.932Z,438.75
2019-04-28T09:15:07.486Z,444.38
2019-04-28T09:16:06.993Z,461.25
2019-04-28T09:17:07.151Z,466.88
2019-04-28T09:18:07.917Z,472.50
2019-04-28T09:19:07.460Z,478.12
2019-04-28T09:20:07.603Z,489.38
2019-04-28T09:21:07.762Z,495.00
2019-04-28T09:22:07.917Z,500.62
2019-04-28T09:23:08.071Z,511.88
2019-04-28T09:24:08.259Z,517.50
2019-04-28T09:25:08.397Z,517.50
2019-04-28T09:26:09.552Z,511.88
2019-04-28T09:27:08.800Z,511.88
2019-04-28T09:28:08.956Z,511.88
2019-04-28T09:29:09.120Z,506.25
2019-04-28T09:30:09.260Z,511.88
2019-04-28T09:31:10.935Z,506.25
2019-04-28T09:32:09.665Z,506.25
2019-04-28T09:33:09.879Z,506.25
2019-04-28T09:34:10.437Z,506.25
2019-04-28T09:35:10.193Z,506.25
2019-04-28T09:36:10.338Z,506.25
2019-04-28T09:37:10.556Z,506.25
2019-04-28T09:38:10.696Z,506.25
2019-04-28T09:39:10.857Z,506.25
2019-04-28T09:40:11.923Z,511.88
2019-04-28T09:41:11.179Z,506.25
2019-04-28T09:42:11.483Z,500.62
2019-04-28T09:43:12.439Z,500.62
2019-04-28T09:44:11.675Z,517.50
2019-04-28T09:45:12.835Z,511.88
2019-04-28T09:46:12.108Z,517.50
2019-04-28T09:47:12.276Z,506.25
2019-04-28T09:48:12.530Z,545.62
2019-04-28T09:49:12.687Z,500.62
2019-04-28T09:50:12.855Z,506.25
2019-04-28T09:51:13.042Z,523.12
2019-04-28T09:52:13.215Z,517.50
2019-04-28T09:53:13.396Z,523.12
2019-04-28T09:54:13.560Z,556.88
2019-04-28T09:55:13.777Z,568.12
2019-04-28T09:56:14.447Z,579.38
2019-04-28T09:57:14.089Z,540.00
2019-04-28T09:58:14.246Z,517.50
2019-04-28T09:59:14.400Z,506.25
2019-04-28T10:00:14.604Z,500.62
2019-04-28T10:01:14.934Z,551.25
2019-04-28T10:02:15.011Z,573.75
2019-04-28T10:03:15.199Z,551.25
2019-04-28T10:04:15.362Z,517.50
2019-04-28T10:05:15.576Z,511.88
2019-04-28T10:06:15.811Z,658.12
2019-04-28T10:07:15.973Z,652.50
2019-04-28T10:08:16.175Z,652.50
2019-04-28T10:09:16.937Z,675.00
2019-04-28T10:10:16.477Z,658.12
2019-04-28T10:11:29.735Z,624.38
2019-04-28T10:12:26.841Z,556.88
2019-04-28T10:13:18.938Z,523.12
2019-04-28T10:14:17.069Z,562.50
2019-04-28T10:15:17.251Z,579.38
2019-04-28T10:16:17.420Z,573.75
2019-04-28T10:17:17.588Z,573.75
2019-04-28T10:18:17.846Z,585.00
2019-04-28T10:19:17.934Z,613.12
2019-04-28T10:20:18.136Z,635.62
2019-04-28T10:21:18.337Z,635.62
2019-04-28T10:22:18.541Z,663.75
2019-04-28T10:23:18.762Z,697.50
2019-04-28T10:24:19.013Z,759.38
2019-04-28T10:25:21.190Z,720.00
2019-04-28T10:26:20.972Z,703.12
2019-04-28T10:27:19.499Z,697.50
2019-04-28T10:28:20.473Z,641.25
2019-04-28T10:29:19.926Z,624.38
2019-04-28T10:30:20.127Z,630.00
2019-04-28T10:31:20.302Z,641.25
2019-04-28T10:32:21.440Z,646.88
2019-04-28T10:33:21.504Z,675.00
2019-04-28T10:34:20.927Z,691.88
2019-04-28T10:35:21.443Z,725.62
2019-04-28T10:36:21.256Z,742.50
2019-04-28T10:37:21.445Z,720.00
2019-04-28T10:38:22.423Z,675.00
2019-04-28T10:39:21.863Z,680.62
2019-04-28T10:40:22.938Z,596.25
2019-04-28T10:41:22.186Z,618.75
2019-04-28T10:42:22.365Z,641.25
2019-04-28T10:43:22.501Z,663.75
2019-04-28T10:44:23.946Z,691.88
2019-04-28T10:45:22.814Z,686.25
2019-04-28T10:46:22.972Z,686.25
2019-04-28T10:47:23.146Z,680.62
2019-04-28T10:48:23.943Z,669.38
2019-04-28T10:49:23.461Z,658.12
2019-04-28T10:50:23.627Z,635.62
2019-04-28T10:51:23.782Z,630.00
2019-04-28T10:52:23.971Z,624.38
2019-04-28T10:53:24.112Z,624.38
2019-04-28T10:54:24.253Z,624.38
2019-04-28T10:55:24.448Z,641.25
2019-04-28T10:56:25.587Z,652.50
2019-04-28T10:57:24.821Z,669.38
2019-04-28T10:58:24.941Z,686.25
2019-04-28T10:59:25.095Z,686.25
2019-04-28T11:00:25.272Z,703.12
2019-04-28T11:01:25.438Z,708.75
2019-04-28T11:02:26.441Z,725.62
2019-04-28T11:03:25.825Z,736.88
2019-04-28T11:04:25.984Z,759.38
2019-04-28T11:05:26.162Z,770.62
2019-04-28T11:06:26.299Z,787.50
2019-04-28T11:07:26.461Z,815.62
2019-04-28T11:08:26.639Z,860.62
2019-04-28T11:09:30.853Z,922.50
2019-04-28T11:10:28.459Z,967.50
2019-04-28T11:11:27.190Z,990.00
2019-04-28T11:12:27.354Z,978.75
2019-04-28T11:13:27.517Z,973.12
2019-04-28T11:14:27.665Z,967.50
2019-04-28T11:15:27.842Z,911.25
2019-04-28T11:16:28.459Z,849.38
2019-04-28T11:17:28.216Z,742.50
2019-04-28T11:18:28.349Z,855.00
2019-04-28T11:19:28.517Z,1040.62
2019-04-28T11:20:28.640Z,821.25
2019-04-28T11:21:28.811Z,703.12
2019-04-28T11:22:28.993Z,1029.38
2019-04-28T11:23:29.156Z,956.25
2019-04-28T11:24:29.321Z,990.00
2019-04-28T11:25:30.447Z,810.00
2019-04-28T11:26:29.726Z,1006.88
2019-04-28T11:27:29.890Z,984.38
2019-04-28T11:28:30.060Z,1001.25
2019-04-28T11:29:30.225Z,742.50
2019-04-28T11:30:30.370Z,860.62
2019-04-28T11:31:30.554Z,720.00
2019-04-28T11:32:32.450Z,984.38
2019-04-28T11:33:30.948Z,933.75
2019-04-28T11:34:31.955Z,495.00
2019-04-28T11:35:31.338Z,450.00
2019-04-28T11:36:31.952Z,433.12
2019-04-28T11:37:31.713Z,427.50
2019-04-28T11:38:31.872Z,427.50
2019-04-28T11:39:32.026Z,444.38
2019-04-28T11:40:32.211Z,472.50
2019-04-28T11:41:32.404Z,810.00
2019-04-28T11:42:32.969Z,708.75
2019-04-28T11:43:32.723Z,506.25
2019-04-28T11:44:32.889Z,511.88
2019-04-28T11:45:33.950Z,511.88
2019-04-28T11:46:33.229Z,489.38
2019-04-28T11:47:33.477Z,315.00
2019-04-28T11:48:33.548Z,286.88
2019-04-28T11:49:33.763Z,264.38
2019-04-28T11:50:33.934Z,247.50
2019-04-28T11:51:34.128Z,241.88
2019-04-28T11:52:34.294Z,230.62
2019-04-28T11:53:34.460Z,219.38
2019-04-28T11:54:34.602Z,196.88
2019-04-28T11:55:34.770Z,185.62
2019-04-28T11:56:41.196Z,180.00
2019-04-28T11:57:37.060Z,168.75
2019-04-28T11:58:35.278Z,163.12
2019-04-28T11:59:35.465Z,157.50
2019-04-28T12:00:35.630Z,163.12
2019-04-28T12:01:36.459Z,168.75
2019-04-28T12:02:35.953Z,180.00
2019-04-28T12:03:36.128Z,196.88
2019-04-28T12:04:36.287Z,213.75
2019-04-28T12:05:38.405Z,225.00
2019-04-28T12:06:37.564Z,225.00
2019-04-28T12:07:36.695Z,225.00
2019-04-28T12:08:36.873Z,230.62
2019-04-28T12:09:37.048Z,225.00
2019-04-28T12:10:37.218Z,219.38
2019-04-28T12:11:37.386Z,208.12
2019-04-28T12:12:38.461Z,202.50
2019-04-28T12:13:37.988Z,208.12
2019-04-28T12:14:37.919Z,196.88
2019-04-28T12:15:38.086Z,191.25
2019-04-28T12:16:38.248Z,185.62
2019-04-28T12:17:38.383Z,180.00
2019-04-28T12:18:38.568Z,180.00
2019-04-28T12:19:39.458Z,174.38
2019-04-28T12:20:38.968Z,174.38
2019-04-28T12:21:39.987Z,168.75
2019-04-28T12:22:39.118Z,168.75
2019-04-28T12:23:39.275Z,163.12
2019-04-28T12:24:39.494Z,157.50
2019-04-28T12:25:39.651Z,151.88
2019-04-28T12:26:39.789Z,151.88
2019-04-28T12:27:39.954Z,146.25
2019-04-28T12:28:40.128Z,146.25
2019-04-28T12:29:40.286Z,146.25
2019-04-28T12:30:40.421Z,151.88
2019-04-28T12:31:41.493Z,151.88
2019-04-28T12:32:41.478Z,151.88
2019-04-28T12:33:41.476Z,151.88
2019-04-28T12:34:41.205Z,157.50
2019-04-28T12:35:47.474Z,163.12
2019-04-28T12:36:43.474Z,163.12
2019-04-28T12:37:42.469Z,168.75
2019-04-28T12:38:41.866Z,168.75
2019-04-28T12:39:42.023Z,168.75
2019-04-28T12:40:42.481Z,168.75
2019-04-28T12:41:42.386Z,168.75
2019-04-28T12:42:43.466Z,168.75
2019-04-28T12:43:42.711Z,168.75
2019-04-28T12:44:42.843Z,168.75
2019-04-28T12:45:43.018Z,168.75
2019-04-28T12:46:43.968Z,168.75
2019-04-28T12:47:43.342Z,168.75
2019-04-28T12:48:43.481Z,168.75
2019-04-28T12:49:43.975Z,168.75
2019-04-28T12:50:43.876Z,168.75